sensor_id;sensor_type;location;lat;lon;timestamp;P1;durP1;ratioP1;P2;durP2;ratioP2
9294;SDS011;4686;44.496;11.324;2023-05-27T00:01:01;12.70;;;11.50;;
9294;SDS011;4686;44.496;11.324;2023-05-27T00:03:28;14.73;;;10.97;;
9294;SDS011;4686;44.496;11.324;2023-05-27T00:05:57;12.03;;;10.93;;
9294;SDS011;4686;44.496;11.324;2023-05-27T00:08:26;12.20;;;11.10;;
9294;SDS011;4686;44.496;11.324;2023-05-27T00:10:53;12.37;;;11.20;;
9294;SDS011;4686;44.496;11.324;2023-05-27T00:13:20;12.90;;;11.20;;
9294;SDS011;4686;44.496;11.324;2023-05-27T00:15:50;15.83;;;10.30;;
9294;SDS011;4686;44.496;11.324;2023-05-27T00:18:19;12.40;;;11.30;;
9294;SDS011;4686;44.496;11.324;2023-05-27T00:20:48;19.03;;;11.50;;
9294;SDS011;4686;44.496;11.324;2023-05-27T00:23:23;11.43;;;10.40;;
9294;SDS011;4686;44.496;11.324;2023-05-27T00:25:53;13.03;;;11.40;;
9294;SDS011;4686;44.496;11.324;2023-05-27T00:28:21;11.60;;;10.60;;
9294;SDS011;4686;44.496;11.324;2023-05-27T00:30:48;13.37;;;10.70;;
9294;SDS011;4686;44.496;11.324;2023-05-27T00:33:15;17.50;;;10.23;;
9294;SDS011;4686;44.496;11.324;2023-05-27T00:35:47;11.83;;;10.73;;
9294;SDS011;4686;44.496;11.324;2023-05-27T00:38:21;14.93;;;10.40;;
9294;SDS011;4686;44.496;11.324;2023-05-27T00:40:53;12.23;;;10.27;;
9294;SDS011;4686;44.496;11.324;2023-05-27T00:43:28;11.97;;;10.77;;
9294;SDS011;4686;44.496;11.324;2023-05-27T00:45:57;11.97;;;10.50;;
9294;SDS011;4686;44.496;11.324;2023-05-27T00:48:24;16.20;;;10.90;;
9294;SDS011;4686;44.496;11.324;2023-05-27T00:50:52;12.77;;;11.30;;
9294;SDS011;4686;44.496;11.324;2023-05-27T00:53:20;11.93;;;10.70;;
9294;SDS011;4686;44.496;11.324;2023-05-27T00:55:47;12.10;;;10.90;;
9294;SDS011;4686;44.496;11.324;2023-05-27T00:58:17;11.03;;;10.13;;
9294;SDS011;4686;44.496;11.324;2023-05-27T01:00:46;13.37;;;10.83;;
9294;SDS011;4686;44.496;11.324;2023-05-27T01:03:14;11.60;;;10.40;;
9294;SDS011;4686;44.496;11.324;2023-05-27T01:05:41;12.70;;;11.50;;
9294;SDS011;4686;44.496;11.324;2023-05-27T01:08:16;13.13;;;11.10;;
9294;SDS011;4686;44.496;11.324;2023-05-27T01:10:46;16.03;;;11.57;;
9294;SDS011;4686;44.496;11.324;2023-05-27T01:13:21;12.47;;;10.93;;
9294;SDS011;4686;44.496;11.324;2023-05-27T01:15:52;12.50;;;11.33;;
9294;SDS011;4686;44.496;11.324;2023-05-27T01:18:20;12.53;;;11.23;;
9294;SDS011;4686;44.496;11.324;2023-05-27T01:20:49;14.33;;;10.93;;
9294;SDS011;4686;44.496;11.324;2023-05-27T01:23:19;12.17;;;11.00;;
9294;SDS011;4686;44.496;11.324;2023-05-27T01:25:47;11.90;;;10.73;;
9294;SDS011;4686;44.496;11.324;2023-05-27T01:28:15;13.07;;;11.30;;
9294;SDS011;4686;44.496;11.324;2023-05-27T01:30:42;12.57;;;10.60;;
9294;SDS011;4686;44.496;11.324;2023-05-27T01:33:11;13.60;;;10.87;;
9294;SDS011;4686;44.496;11.324;2023-05-27T01:35:41;13.60;;;11.77;;
9294;SDS011;4686;44.496;11.324;2023-05-27T01:38:10;14.00;;;11.67;;
9294;SDS011;4686;44.496;11.324;2023-05-27T01:40:41;13.33;;;11.83;;
9294;SDS011;4686;44.496;11.324;2023-05-27T01:43:08;14.80;;;12.97;;
9294;SDS011;4686;44.496;11.324;2023-05-27T01:45:36;16.03;;;12.80;;
9294;SDS011;4686;44.496;11.324;2023-05-27T01:48:03;17.90;;;13.93;;
9294;SDS011;4686;44.496;11.324;2023-05-27T01:50:30;22.03;;;15.20;;
9294;SDS011;4686;44.496;11.324;2023-05-27T01:52:58;20.70;;;16.00;;
9294;SDS011;4686;44.496;11.324;2023-05-27T01:55:26;20.73;;;14.57;;
9294;SDS011;4686;44.496;11.324;2023-05-27T01:57:56;22.90;;;17.03;;
9294;SDS011;4686;44.496;11.324;2023-05-27T02:03:27;18.90;;;16.30;;
9294;SDS011;4686;44.496;11.324;2023-05-27T02:05:54;24.03;;;15.63;;
9294;SDS011;4686;44.496;11.324;2023-05-27T02:08:23;26.50;;;17.13;;
9294;SDS011;4686;44.496;11.324;2023-05-27T02:10:53;17.33;;;15.50;;
9294;SDS011;4686;44.496;11.324;2023-05-27T02:13:22;19.57;;;13.70;;
9294;SDS011;4686;44.496;11.324;2023-05-27T02:15:51;17.90;;;13.83;;
9294;SDS011;4686;44.496;11.324;2023-05-27T02:18:18;15.27;;;13.43;;
9294;SDS011;4686;44.496;11.324;2023-05-27T02:20:48;18.87;;;12.30;;
9294;SDS011;4686;44.496;11.324;2023-05-27T02:23:15;15.87;;;13.13;;
9294;SDS011;4686;44.496;11.324;2023-05-27T02:25:44;14.17;;;12.30;;
9294;SDS011;4686;44.496;11.324;2023-05-27T02:28:17;15.87;;;13.30;;
9294;SDS011;4686;44.496;11.324;2023-05-27T02:30:47;16.30;;;12.93;;
9294;SDS011;4686;44.496;11.324;2023-05-27T02:33:14;17.73;;;13.60;;
9294;SDS011;4686;44.496;11.324;2023-05-27T02:35:43;22.53;;;14.07;;
9294;SDS011;4686;44.496;11.324;2023-05-27T02:38:11;17.60;;;14.27;;
9294;SDS011;4686;44.496;11.324;2023-05-27T02:40:38;19.87;;;14.70;;
9294;SDS011;4686;44.496;11.324;2023-05-27T02:43:06;21.83;;;14.17;;
9294;SDS011;4686;44.496;11.324;2023-05-27T02:45:33;17.37;;;13.27;;
9294;SDS011;4686;44.496;11.324;2023-05-27T02:48:02;21.03;;;13.30;;
9294;SDS011;4686;44.496;11.324;2023-05-27T02:50:29;18.00;;;14.00;;
9294;SDS011;4686;44.496;11.324;2023-05-27T02:52:59;15.63;;;12.83;;
9294;SDS011;4686;44.496;11.324;2023-05-27T02:55:27;16.70;;;14.10;;
9294;SDS011;4686;44.496;11.324;2023-05-27T02:57:55;16.83;;;13.83;;
9294;SDS011;4686;44.496;11.324;2023-05-27T03:00:22;17.00;;;14.30;;
9294;SDS011;4686;44.496;11.324;2023-05-27T03:02:52;19.90;;;14.27;;
9294;SDS011;4686;44.496;11.324;2023-05-27T03:05:20;20.93;;;15.57;;
9294;SDS011;4686;44.496;11.324;2023-05-27T03:07:48;19.37;;;14.77;;
9294;SDS011;4686;44.496;11.324;2023-05-27T03:10:16;24.37;;;20.73;;
9294;SDS011;4686;44.496;11.324;2023-05-27T03:12:44;25.30;;;20.10;;
9294;SDS011;4686;44.496;11.324;2023-05-27T03:15:11;21.57;;;15.87;;
9294;SDS011;4686;44.496;11.324;2023-05-27T03:17:39;20.43;;;14.57;;
9294;SDS011;4686;44.496;11.324;2023-05-27T03:20:09;19.47;;;15.40;;
9294;SDS011;4686;44.496;11.324;2023-05-27T03:22:51;18.83;;;16.83;;
9294;SDS011;4686;44.496;11.324;2023-05-27T03:25:21;16.57;;;14.20;;
9294;SDS011;4686;44.496;11.324;2023-05-27T03:27:49;19.53;;;16.33;;
9294;SDS011;4686;44.496;11.324;2023-05-27T03:30:18;16.80;;;14.77;;
9294;SDS011;4686;44.496;11.324;2023-05-27T03:32:48;22.13;;;14.87;;
9294;SDS011;4686;44.496;11.324;2023-05-27T03:35:17;20.00;;;15.30;;
9294;SDS011;4686;44.496;11.324;2023-05-27T03:37:46;21.83;;;13.93;;
9294;SDS011;4686;44.496;11.324;2023-05-27T03:40:14;20.60;;;14.80;;
9294;SDS011;4686;44.496;11.324;2023-05-27T03:42:44;14.63;;;13.23;;
9294;SDS011;4686;44.496;11.324;2023-05-27T03:45:11;15.50;;;13.87;;
9294;SDS011;4686;44.496;11.324;2023-05-27T03:47:39;18.50;;;14.10;;
9294;SDS011;4686;44.496;11.324;2023-05-27T03:50:06;21.60;;;14.50;;
9294;SDS011;4686;44.496;11.324;2023-05-27T03:52:33;20.43;;;15.70;;
9294;SDS011;4686;44.496;11.324;2023-05-27T03:55:01;15.17;;;13.57;;
9294;SDS011;4686;44.496;11.324;2023-05-27T03:57:30;21.37;;;15.60;;
9294;SDS011;4686;44.496;11.324;2023-05-27T03:59:57;19.00;;;14.50;;
9294;SDS011;4686;44.496;11.324;2023-05-27T04:02:24;20.40;;;14.33;;
9294;SDS011;4686;44.496;11.324;2023-05-27T04:04:53;15.30;;;13.73;;
9294;SDS011;4686;44.496;11.324;2023-05-27T04:07:20;18.17;;;14.60;;
9294;SDS011;4686;44.496;11.324;2023-05-27T04:09:51;17.47;;;13.77;;
9294;SDS011;4686;44.496;11.324;2023-05-27T04:12:19;24.50;;;14.90;;
9294;SDS011;4686;44.496;11.324;2023-05-27T04:14:48;14.57;;;13.10;;
9294;SDS011;4686;44.496;11.324;2023-05-27T04:17:15;17.30;;;14.93;;
9294;SDS011;4686;44.496;11.324;2023-05-27T04:19:42;16.40;;;14.33;;
9294;SDS011;4686;44.496;11.324;2023-05-27T04:22:09;18.33;;;14.27;;
9294;SDS011;4686;44.496;11.324;2023-05-27T04:24:37;16.00;;;14.30;;
9294;SDS011;4686;44.496;11.324;2023-05-27T04:27:06;21.80;;;15.93;;
9294;SDS011;4686;44.496;11.324;2023-05-27T04:29:34;22.33;;;14.70;;
9294;SDS011;4686;44.496;11.324;2023-05-27T04:32:04;18.60;;;14.50;;
9294;SDS011;4686;44.496;11.324;2023-05-27T04:34:32;17.60;;;14.67;;
9294;SDS011;4686;44.496;11.324;2023-05-27T04:36:59;21.03;;;15.70;;
9294;SDS011;4686;44.496;11.324;2023-05-27T04:39:26;22.53;;;14.03;;
9294;SDS011;4686;44.496;11.324;2023-05-27T04:41:54;17.33;;;13.80;;
9294;SDS011;4686;44.496;11.324;2023-05-27T04:44:22;16.87;;;15.03;;
9294;SDS011;4686;44.496;11.324;2023-05-27T04:46:51;21.80;;;16.33;;
9294;SDS011;4686;44.496;11.324;2023-05-27T04:49:21;21.67;;;15.90;;
9294;SDS011;4686;44.496;11.324;2023-05-27T04:51:51;18.17;;;16.30;;
9294;SDS011;4686;44.496;11.324;2023-05-27T04:54:29;18.83;;;15.00;;
9294;SDS011;4686;44.496;11.324;2023-05-27T04:56:56;22.57;;;16.30;;
9294;SDS011;4686;44.496;11.324;2023-05-27T04:59:24;20.70;;;15.83;;
9294;SDS011;4686;44.496;11.324;2023-05-27T05:02:17;16.97;;;14.90;;
9294;SDS011;4686;44.496;11.324;2023-05-27T05:04:51;18.23;;;14.67;;
9294;SDS011;4686;44.496;11.324;2023-05-27T05:07:19;24.43;;;15.00;;
9294;SDS011;4686;44.496;11.324;2023-05-27T05:09:46;21.87;;;14.97;;
9294;SDS011;4686;44.496;11.324;2023-05-27T05:12:13;21.13;;;13.70;;
9294;SDS011;4686;44.496;11.324;2023-05-27T05:14:44;19.37;;;13.40;;
9294;SDS011;4686;44.496;11.324;2023-05-27T05:17:12;18.30;;;12.60;;
9294;SDS011;4686;44.496;11.324;2023-05-27T05:19:39;18.80;;;12.30;;
9294;SDS011;4686;44.496;11.324;2023-05-27T05:22:14;13.87;;;12.17;;
9294;SDS011;4686;44.496;11.324;2023-05-27T05:24:43;15.30;;;12.33;;
9294;SDS011;4686;44.496;11.324;2023-05-27T05:27:11;13.30;;;11.90;;
9294;SDS011;4686;44.496;11.324;2023-05-27T05:29:38;17.03;;;11.63;;
9294;SDS011;4686;44.496;11.324;2023-05-27T05:32:06;12.83;;;11.57;;
9294;SDS011;4686;44.496;11.324;2023-05-27T05:34:35;17.00;;;12.30;;
9294;SDS011;4686;44.496;11.324;2023-05-27T05:37:03;14.33;;;12.00;;
9294;SDS011;4686;44.496;11.324;2023-05-27T05:39:32;16.63;;;12.30;;
9294;SDS011;4686;44.496;11.324;2023-05-27T05:41:59;14.10;;;11.03;;
9294;SDS011;4686;44.496;11.324;2023-05-27T05:44:27;15.27;;;12.20;;
9294;SDS011;4686;44.496;11.324;2023-05-27T05:46:54;12.50;;;10.47;;
9294;SDS011;4686;44.496;11.324;2023-05-27T05:49:22;17.23;;;10.97;;
9294;SDS011;4686;44.496;11.324;2023-05-27T05:51:49;11.93;;;10.77;;
9294;SDS011;4686;44.496;11.324;2023-05-27T05:54:16;12.10;;;10.30;;
9294;SDS011;4686;44.496;11.324;2023-05-27T05:56:45;16.40;;;10.97;;
9294;SDS011;4686;44.496;11.324;2023-05-27T05:59:13;23.47;;;13.00;;
9294;SDS011;4686;44.496;11.324;2023-05-27T06:01:40;13.47;;;10.50;;
9294;SDS011;4686;44.496;11.324;2023-05-27T06:04:08;16.70;;;11.17;;
9294;SDS011;4686;44.496;11.324;2023-05-27T06:06:38;14.10;;;11.20;;
9294;SDS011;4686;44.496;11.324;2023-05-27T06:09:06;23.03;;;13.73;;
9294;SDS011;4686;44.496;11.324;2023-05-27T06:11:33;43.63;;;23.10;;
9294;SDS011;4686;44.496;11.324;2023-05-27T06:14:03;20.30;;;12.20;;
9294;SDS011;4686;44.496;11.324;2023-05-27T06:16:30;13.80;;;11.27;;
9294;SDS011;4686;44.496;11.324;2023-05-27T06:18:58;12.90;;;11.17;;
9294;SDS011;4686;44.496;11.324;2023-05-27T06:21:25;20.53;;;11.27;;
9294;SDS011;4686;44.496;11.324;2023-05-27T06:23:54;13.87;;;11.17;;
9294;SDS011;4686;44.496;11.324;2023-05-27T06:26:22;23.77;;;11.83;;
9294;SDS011;4686;44.496;11.324;2023-05-27T06:28:49;11.00;;;10.00;;
9294;SDS011;4686;44.496;11.324;2023-05-27T06:31:22;15.30;;;10.20;;
9294;SDS011;4686;44.496;11.324;2023-05-27T06:33:49;15.77;;;10.37;;
9294;SDS011;4686;44.496;11.324;2023-05-27T06:36:18;13.00;;;10.67;;
9294;SDS011;4686;44.496;11.324;2023-05-27T06:38:49;13.90;;;10.37;;
9294;SDS011;4686;44.496;11.324;2023-05-27T06:41:16;13.40;;;10.23;;
9294;SDS011;4686;44.496;11.324;2023-05-27T06:43:47;18.03;;;10.90;;
9294;SDS011;4686;44.496;11.324;2023-05-27T06:46:19;15.77;;;10.03;;
9294;SDS011;4686;44.496;11.324;2023-05-27T06:48:59;20.33;;;10.40;;
9294;SDS011;4686;44.496;11.324;2023-05-27T06:51:26;18.00;;;13.00;;
9294;SDS011;4686;44.496;11.324;2023-05-27T06:53:57;14.87;;;10.63;;
9294;SDS011;4686;44.496;11.324;2023-05-27T06:56:24;15.07;;;10.20;;
9294;SDS011;4686;44.496;11.324;2023-05-27T06:58:53;13.03;;;10.67;;
9294;SDS011;4686;44.496;11.324;2023-05-27T07:01:22;13.63;;;11.70;;
9294;SDS011;4686;44.496;11.324;2023-05-27T07:03:51;13.00;;;11.60;;
9294;SDS011;4686;44.496;11.324;2023-05-27T07:06:21;16.00;;;11.37;;
9294;SDS011;4686;44.496;11.324;2023-05-27T07:08:49;13.70;;;10.73;;
9294;SDS011;4686;44.496;11.324;2023-05-27T07:11:17;13.63;;;10.30;;
9294;SDS011;4686;44.496;11.324;2023-05-27T07:13:58;12.03;;;10.47;;
9294;SDS011;4686;44.496;11.324;2023-05-27T07:16:27;18.03;;;10.60;;
9294;SDS011;4686;44.496;11.324;2023-05-27T07:18:55;12.40;;;11.10;;
9294;SDS011;4686;44.496;11.324;2023-05-27T07:21:23;18.60;;;11.53;;
9294;SDS011;4686;44.496;11.324;2023-05-27T07:23:51;18.80;;;11.17;;
9294;SDS011;4686;44.496;11.324;2023-05-27T07:26:18;15.73;;;11.90;;
9294;SDS011;4686;44.496;11.324;2023-05-27T07:28:45;11.37;;;10.27;;
9294;SDS011;4686;44.496;11.324;2023-05-27T07:31:14;22.00;;;11.87;;
9294;SDS011;4686;44.496;11.324;2023-05-27T07:33:43;16.53;;;10.37;;
9294;SDS011;4686;44.496;11.324;2023-05-27T07:36:11;15.33;;;12.30;;
9294;SDS011;4686;44.496;11.324;2023-05-27T07:38:38;15.80;;;11.20;;
9294;SDS011;4686;44.496;11.324;2023-05-27T07:41:05;16.23;;;11.00;;
9294;SDS011;4686;44.496;11.324;2023-05-27T07:43:35;13.40;;;12.10;;
9294;SDS011;4686;44.496;11.324;2023-05-27T07:46:02;12.50;;;10.13;;
9294;SDS011;4686;44.496;11.324;2023-05-27T07:48:32;18.57;;;14.63;;
9294;SDS011;4686;44.496;11.324;2023-05-27T07:51:01;12.20;;;10.90;;
9294;SDS011;4686;44.496;11.324;2023-05-27T07:53:29;17.47;;;11.20;;
9294;SDS011;4686;44.496;11.324;2023-05-27T07:56:00;14.07;;;10.73;;
9294;SDS011;4686;44.496;11.324;2023-05-27T07:58:30;11.63;;;9.87;;
9294;SDS011;4686;44.496;11.324;2023-05-27T08:00:59;14.83;;;10.60;;
9294;SDS011;4686;44.496;11.324;2023-05-27T08:03:28;13.37;;;10.17;;
9294;SDS011;4686;44.496;11.324;2023-05-27T08:06:12;12.53;;;10.57;;
9294;SDS011;4686;44.496;11.324;2023-05-27T08:08:41;14.00;;;11.50;;
9294;SDS011;4686;44.496;11.324;2023-05-27T08:11:10;16.63;;;10.27;;
9294;SDS011;4686;44.496;11.324;2023-05-27T08:13:37;16.33;;;10.33;;
9294;SDS011;4686;44.496;11.324;2023-05-27T08:16:08;17.10;;;10.47;;
9294;SDS011;4686;44.496;11.324;2023-05-27T08:18:36;17.63;;;11.60;;
9294;SDS011;4686;44.496;11.324;2023-05-27T08:21:04;12.43;;;10.63;;
9294;SDS011;4686;44.496;11.324;2023-05-27T08:23:33;15.20;;;10.60;;
9294;SDS011;4686;44.496;11.324;2023-05-27T08:26:00;13.20;;;10.90;;
9294;SDS011;4686;44.496;11.324;2023-05-27T08:28:27;14.70;;;10.53;;
9294;SDS011;4686;44.496;11.324;2023-05-27T08:30:55;13.83;;;11.30;;
9294;SDS011;4686;44.496;11.324;2023-05-27T08:33:22;12.63;;;10.90;;
9294;SDS011;4686;44.496;11.324;2023-05-27T08:35:51;12.00;;;9.80;;
9294;SDS011;4686;44.496;11.324;2023-05-27T08:38:19;13.50;;;9.67;;
9294;SDS011;4686;44.496;11.324;2023-05-27T08:40:52;11.30;;;10.20;;
9294;SDS011;4686;44.496;11.324;2023-05-27T08:43:20;20.13;;;10.40;;
9294;SDS011;4686;44.496;11.324;2023-05-27T08:45:49;17.07;;;11.60;;
9294;SDS011;4686;44.496;11.324;2023-05-27T08:48:17;17.20;;;10.73;;
9294;SDS011;4686;44.496;11.324;2023-05-27T08:50:48;12.53;;;10.47;;
9294;SDS011;4686;44.496;11.324;2023-05-27T08:53:16;17.83;;;10.90;;
9294;SDS011;4686;44.496;11.324;2023-05-27T08:55:45;11.90;;;10.63;;
9294;SDS011;4686;44.496;11.324;2023-05-27T09:00:58;18.37;;;11.67;;
9294;SDS011;4686;44.496;11.324;2023-05-27T09:03:29;17.67;;;10.73;;
9294;SDS011;4686;44.496;11.324;2023-05-27T09:05:57;12.80;;;10.13;;
9294;SDS011;4686;44.496;11.324;2023-05-27T09:08:27;17.40;;;12.47;;
9294;SDS011;4686;44.496;11.324;2023-05-27T09:11:08;12.17;;;10.90;;
9294;SDS011;4686;44.496;11.324;2023-05-27T09:13:36;12.10;;;9.80;;
9294;SDS011;4686;44.496;11.324;2023-05-27T09:16:06;13.73;;;9.90;;
9294;SDS011;4686;44.496;11.324;2023-05-27T09:18:42;12.93;;;10.20;;
9294;SDS011;4686;44.496;11.324;2023-05-27T09:21:09;10.90;;;9.77;;
9294;SDS011;4686;44.496;11.324;2023-05-27T09:23:37;13.90;;;10.37;;
9294;SDS011;4686;44.496;11.324;2023-05-27T09:26:07;12.50;;;10.60;;
9294;SDS011;4686;44.496;11.324;2023-05-27T09:28:36;17.47;;;10.33;;
9294;SDS011;4686;44.496;11.324;2023-05-27T09:31:07;13.80;;;10.53;;
9294;SDS011;4686;44.496;11.324;2023-05-27T09:33:38;16.70;;;10.13;;
9294;SDS011;4686;44.496;11.324;2023-05-27T09:36:06;13.70;;;10.20;;
9294;SDS011;4686;44.496;11.324;2023-05-27T09:38:36;11.10;;;9.90;;
9294;SDS011;4686;44.496;11.324;2023-05-27T09:41:03;9.70;;;8.80;;
9294;SDS011;4686;44.496;11.324;2023-05-27T09:43:30;11.97;;;9.67;;
9294;SDS011;4686;44.496;11.324;2023-05-27T09:46:00;11.00;;;9.90;;
9294;SDS011;4686;44.496;11.324;2023-05-27T09:48:30;11.07;;;9.10;;
9294;SDS011;4686;44.496;11.324;2023-05-27T09:51:00;16.97;;;10.27;;
9294;SDS011;4686;44.496;11.324;2023-05-27T09:53:27;12.53;;;10.50;;
9294;SDS011;4686;44.496;11.324;2023-05-27T09:55:56;12.63;;;10.10;;
9294;SDS011;4686;44.496;11.324;2023-05-27T09:58:24;12.80;;;9.83;;
9294;SDS011;4686;44.496;11.324;2023-05-27T10:00:51;12.43;;;9.17;;
9294;SDS011;4686;44.496;11.324;2023-05-27T10:03:20;11.80;;;8.20;;
9294;SDS011;4686;44.496;11.324;2023-05-27T10:05:50;9.50;;;8.30;;
9294;SDS011;4686;44.496;11.324;2023-05-27T10:08:18;9.23;;;8.10;;
9294;SDS011;4686;44.496;11.324;2023-05-27T10:10:45;11.83;;;8.87;;
9294;SDS011;4686;44.496;11.324;2023-05-27T10:13:13;10.27;;;9.17;;
9294;SDS011;4686;44.496;11.324;2023-05-27T10:15:45;9.43;;;8.53;;
9294;SDS011;4686;44.496;11.324;2023-05-27T10:18:21;9.67;;;8.10;;
9294;SDS011;4686;44.496;11.324;2023-05-27T10:20:51;14.17;;;9.70;;
9294;SDS011;4686;44.496;11.324;2023-05-27T10:23:25;10.13;;;8.90;;
9294;SDS011;4686;44.496;11.324;2023-05-27T10:25:53;9.53;;;8.63;;
9294;SDS011;4686;44.496;11.324;2023-05-27T10:28:27;10.40;;;9.30;;
9294;SDS011;4686;44.496;11.324;2023-05-27T10:33:57;11.63;;;8.87;;
9294;SDS011;4686;44.496;11.324;2023-05-27T10:36:26;10.07;;;8.97;;
9294;SDS011;4686;44.496;11.324;2023-05-27T10:38:57;11.50;;;8.63;;
9294;SDS011;4686;44.496;11.324;2023-05-27T10:41:24;9.43;;;8.53;;
9294;SDS011;4686;44.496;11.324;2023-05-27T10:43:55;13.27;;;9.17;;
9294;SDS011;4686;44.496;11.324;2023-05-27T10:46:25;13.23;;;9.37;;
9294;SDS011;4686;44.496;11.324;2023-05-27T10:48:53;11.30;;;8.77;;
9294;SDS011;4686;44.496;11.324;2023-05-27T10:51:20;11.47;;;8.53;;
9294;SDS011;4686;44.496;11.324;2023-05-27T10:54:02;9.87;;;8.83;;
9294;SDS011;4686;44.496;11.324;2023-05-27T10:56:29;8.93;;;8.13;;
9294;SDS011;4686;44.496;11.324;2023-05-27T10:59:04;10.60;;;8.07;;
9294;SDS011;4686;44.496;11.324;2023-05-27T11:01:32;9.27;;;8.33;;
9294;SDS011;4686;44.496;11.324;2023-05-27T11:04:00;9.00;;;8.10;;
9294;SDS011;4686;44.496;11.324;2023-05-27T11:06:46;10.83;;;9.37;;
9294;SDS011;4686;44.496;11.324;2023-05-27T11:09:24;10.33;;;7.90;;
9294;SDS011;4686;44.496;11.324;2023-05-27T11:11:52;9.37;;;7.47;;
9294;SDS011;4686;44.496;11.324;2023-05-27T11:14:20;10.00;;;9.10;;
9294;SDS011;4686;44.496;11.324;2023-05-27T11:16:48;9.50;;;8.53;;
9294;SDS011;4686;44.496;11.324;2023-05-27T11:19:17;9.53;;;8.53;;
9294;SDS011;4686;44.496;11.324;2023-05-27T11:21:45;8.93;;;8.07;;
9294;SDS011;4686;44.496;11.324;2023-05-27T11:24:14;9.90;;;8.60;;
9294;SDS011;4686;44.496;11.324;2023-05-27T11:26:44;8.30;;;7.50;;
9294;SDS011;4686;44.496;11.324;2023-05-27T11:29:12;10.80;;;7.87;;
9294;SDS011;4686;44.496;11.324;2023-05-27T11:31:41;12.27;;;9.07;;
9294;SDS011;4686;44.496;11.324;2023-05-27T11:34:13;9.50;;;8.20;;
9294;SDS011;4686;44.496;11.324;2023-05-27T11:36:40;7.80;;;7.10;;
9294;SDS011;4686;44.496;11.324;2023-05-27T11:39:10;11.20;;;7.90;;
9294;SDS011;4686;44.496;11.324;2023-05-27T11:41:47;8.53;;;7.73;;
9294;SDS011;4686;44.496;11.324;2023-05-27T11:44:15;9.40;;;8.13;;
9294;SDS011;4686;44.496;11.324;2023-05-27T11:46:43;12.50;;;9.30;;
9294;SDS011;4686;44.496;11.324;2023-05-27T11:49:12;9.60;;;8.30;;
9294;SDS011;4686;44.496;11.324;2023-05-27T11:51:40;10.03;;;8.40;;
9294;SDS011;4686;44.496;11.324;2023-05-27T11:54:08;11.80;;;8.63;;
9294;SDS011;4686;44.496;11.324;2023-05-27T11:56:41;11.00;;;8.03;;
9294;SDS011;4686;44.496;11.324;2023-05-27T11:59:11;9.60;;;8.60;;
9294;SDS011;4686;44.496;11.324;2023-05-27T12:01:42;10.30;;;9.20;;
9294;SDS011;4686;44.496;11.324;2023-05-27T12:04:13;9.60;;;8.27;;
9294;SDS011;4686;44.496;11.324;2023-05-27T12:06:51;8.93;;;8.03;;
9294;SDS011;4686;44.496;11.324;2023-05-27T12:09:19;11.53;;;8.30;;
9294;SDS011;4686;44.496;11.324;2023-05-27T12:11:59;9.53;;;7.50;;
9294;SDS011;4686;44.496;11.324;2023-05-27T12:14:26;8.93;;;8.10;;
9294;SDS011;4686;44.496;11.324;2023-05-27T12:16:55;8.60;;;7.70;;
9294;SDS011;4686;44.496;11.324;2023-05-27T12:19:23;10.83;;;8.07;;
9294;SDS011;4686;44.496;11.324;2023-05-27T12:21:50;8.47;;;7.63;;
9294;SDS011;4686;44.496;11.324;2023-05-27T12:24:18;13.37;;;8.13;;
9294;SDS011;4686;44.496;11.324;2023-05-27T12:26:46;8.77;;;7.80;;
9294;SDS011;4686;44.496;11.324;2023-05-27T12:29:14;9.53;;;8.43;;
9294;SDS011;4686;44.496;11.324;2023-05-27T12:31:41;10.40;;;7.70;;
9294;SDS011;4686;44.496;11.324;2023-05-27T12:34:10;8.80;;;7.93;;
9294;SDS011;4686;44.496;11.324;2023-05-27T12:36:38;9.30;;;8.40;;
9294;SDS011;4686;44.496;11.324;2023-05-27T12:39:05;9.23;;;8.23;;
9294;SDS011;4686;44.496;11.324;2023-05-27T12:41:34;9.60;;;7.60;;
9294;SDS011;4686;44.496;11.324;2023-05-27T12:44:05;9.47;;;8.47;;
9294;SDS011;4686;44.496;11.324;2023-05-27T12:46:42;11.60;;;8.37;;
9294;SDS011;4686;44.496;11.324;2023-05-27T12:49:11;10.37;;;7.97;;
9294;SDS011;4686;44.496;11.324;2023-05-27T12:51:38;11.13;;;8.60;;
9294;SDS011;4686;44.496;11.324;2023-05-27T12:54:06;12.80;;;7.90;;
9294;SDS011;4686;44.496;11.324;2023-05-27T12:56:34;9.23;;;8.00;;
9294;SDS011;4686;44.496;11.324;2023-05-27T13:05:31;10.80;;;7.90;;
9294;SDS011;4686;44.496;11.324;2023-05-27T13:08:34;7.83;;;7.13;;
9294;SDS011;4686;44.496;11.324;2023-05-27T13:11:02;13.13;;;8.30;;
9294;SDS011;4686;44.496;11.324;2023-05-27T13:13:39;10.63;;;8.57;;
9294;SDS011;4686;44.496;11.324;2023-05-27T13:25:27;15.70;;;8.37;;
9294;SDS011;4686;44.496;11.324;2023-05-27T13:27:59;8.83;;;8.03;;
9294;SDS011;4686;44.496;11.324;2023-05-27T13:30:30;12.07;;;8.23;;
9294;SDS011;4686;44.496;11.324;2023-05-27T13:36:14;11.63;;;8.10;;
9294;SDS011;4686;44.496;11.324;2023-05-27T13:38:54;11.03;;;8.20;;
9294;SDS011;4686;44.496;11.324;2023-05-27T13:41:31;9.50;;;7.97;;
9294;SDS011;4686;44.496;11.324;2023-05-27T13:44:12;8.27;;;7.47;;
9294;SDS011;4686;44.496;11.324;2023-05-27T13:50:02;9.07;;;8.07;;
9294;SDS011;4686;44.496;11.324;2023-05-27T13:52:49;10.87;;;7.60;;
9294;SDS011;4686;44.496;11.324;2023-05-27T13:55:28;9.73;;;8.10;;
9294;SDS011;4686;44.496;11.324;2023-05-27T14:00:42;10.20;;;7.90;;
9294;SDS011;4686;44.496;11.324;2023-05-27T14:03:14;8.07;;;7.33;;
9294;SDS011;4686;44.496;11.324;2023-05-27T14:12:05;9.17;;;8.10;;
9294;SDS011;4686;44.496;11.324;2023-05-27T14:14:38;7.90;;;7.30;;
9294;SDS011;4686;44.496;11.324;2023-05-27T14:17:07;9.70;;;7.83;;
9294;SDS011;4686;44.496;11.324;2023-05-27T14:19:35;9.30;;;7.10;;
9294;SDS011;4686;44.496;11.324;2023-05-27T14:22:02;8.33;;;7.50;;
9294;SDS011;4686;44.496;11.324;2023-05-27T14:24:36;9.73;;;7.40;;
9294;SDS011;4686;44.496;11.324;2023-05-27T14:27:08;7.73;;;7.03;;
9294;SDS011;4686;44.496;11.324;2023-05-27T14:32:28;9.07;;;7.73;;
9294;SDS011;4686;44.496;11.324;2023-05-27T14:34:56;7.73;;;7.03;;
9294;SDS011;4686;44.496;11.324;2023-05-27T14:37:24;8.70;;;6.70;;
9294;SDS011;4686;44.496;11.324;2023-05-27T14:39:51;12.60;;;6.97;;
9294;SDS011;4686;44.496;11.324;2023-05-27T14:42:19;7.83;;;6.60;;
9294;SDS011;4686;44.496;11.324;2023-05-27T14:44:46;7.73;;;7.03;;
9294;SDS011;4686;44.496;11.324;2023-05-27T14:47:13;10.90;;;7.20;;
9294;SDS011;4686;44.496;11.324;2023-05-27T14:49:43;8.00;;;7.27;;
9294;SDS011;4686;44.496;11.324;2023-05-27T14:52:10;7.30;;;6.60;;
9294;SDS011;4686;44.496;11.324;2023-05-27T14:54:38;8.40;;;7.23;;
9294;SDS011;4686;44.496;11.324;2023-05-27T14:57:05;7.57;;;6.87;;
9294;SDS011;4686;44.496;11.324;2023-05-27T14:59:32;7.60;;;6.90;;
9294;SDS011;4686;44.496;11.324;2023-05-27T15:02:00;9.20;;;7.00;;
9294;SDS011;4686;44.496;11.324;2023-05-27T15:04:27;7.03;;;6.33;;
9294;SDS011;4686;44.496;11.324;2023-05-27T15:06:56;7.60;;;6.93;;
9294;SDS011;4686;44.496;11.324;2023-05-27T15:09:23;7.90;;;7.10;;
9294;SDS011;4686;44.496;11.324;2023-05-27T15:11:50;7.93;;;7.10;;
9294;SDS011;4686;44.496;11.324;2023-05-27T15:14:18;7.53;;;6.67;;
9294;SDS011;4686;44.496;11.324;2023-05-27T15:16:45;8.30;;;6.83;;
9294;SDS011;4686;44.496;11.324;2023-05-27T15:19:13;7.83;;;7.13;;
9294;SDS011;4686;44.496;11.324;2023-05-27T15:21:40;9.33;;;7.23;;
9294;SDS011;4686;44.496;11.324;2023-05-27T15:24:08;8.20;;;7.40;;
9294;SDS011;4686;44.496;11.324;2023-05-27T15:26:36;7.33;;;6.73;;
9294;SDS011;4686;44.496;11.324;2023-05-27T15:29:03;11.43;;;8.80;;
9294;SDS011;4686;44.496;11.324;2023-05-27T15:31:31;8.17;;;6.83;;
9294;SDS011;4686;44.496;11.324;2023-05-27T15:33:58;8.67;;;7.83;;
9294;SDS011;4686;44.496;11.324;2023-05-27T15:36:25;11.87;;;9.53;;
9294;SDS011;4686;44.496;11.324;2023-05-27T15:38:53;7.27;;;6.67;;